This is the latest recevied weather packets stored in our database for station/object s55g-5. If no packets are shown the sender has not sent any weather packets the latest 10 day(s).
| Time | Temp. | Humidity | Pressure | Rain* | Wind** | Luminosity | Snow |
|---|---|---|---|---|---|---|---|
| 1777295344 | 26.67° C | 38% | 1017.9 hPa | 0 mm | - | - | - |
| 1777293364 | 26.67° C | 34% | 1018.3 hPa | 0 mm | - | - | - |
| 1777289224 | 25.56° C | 35% | 1018.9 hPa | 0 mm | - | - | - |
| 1777288684 | 25° C | 35% | 1018.9 hPa | 0 mm | - | - | - |
| 1777280044 | 21.11° C | 36% | 1020.2 hPa | 0 mm | - | - | - |
| 1777277884 | 20.56° C | 36% | 1020.2 hPa | 0 mm | - | - | - |
| 1777277344 | 20.56° C | 39% | 1020.2 hPa | 0 mm | - | - | - |
| 1777276803 | 20.56° C | 37% | 1020.1 hPa | 0 mm | - | - | - |
| 1777275364 | 19.44° C | 39% | 1020.1 hPa | 0 mm | - | - | - |
| 1777273204 | 18.33° C | 39% | 1020 hPa | 0 mm | - | - | - |
| 1777272304 | 18.33° C | 43% | 1020.3 hPa | 0 mm | - | - | - |
| 1777269243 | 16.67° C | 41% | 1020.4 hPa | 0 mm | - | - | - |
| 1777267084 | 15° C | 45% | 1020.1 hPa | 0 mm | - | - | - |
| 1777265644 | 15.56° C | 42% | 1019.8 hPa | 0 mm | - | - | - |
| 1777261504 | 14.44° C | 44% | 1019.3 hPa | 0 mm | - | - | - |
| 1777256824 | 15° C | 45% | 1019.4 hPa | 0 mm | - | - | - |
| 1777255204 | 15.56° C | 45% | 1019.4 hPa | 0 mm | - | - | - |
| 1777254303 | 15.56° C | 46% | 1019.3 hPa | 0 mm | - | - | - |
| 1777252818 | 15.56° C | 47% | 1019.5 hPa | 0 mm | - | - | - |
| 1777249217 | 16.67° C | 47% | 1019.6 hPa | 0 mm | - | - | - |
| 1777232704 | 15° C | 74% | 1018.9 hPa | 0 mm | - | - | - |
| 1777230544 | 15.56° C | 71% | 1018.5 hPa | 0 mm | - | - | - |
| 1777226404 | 19.44° C | 57% | 1017.9 hPa | 0 mm | - | - | - |
| 1777223884 | 22.78° C | 50% | 1017.7 hPa | 0 mm | - | - | - |
| 1777216684 | 24.44° C | 42% | 1017.7 hPa | 0 mm | - | - | - |
* Rain latest hour (hover to see other rain measurements)
** Current wind speed in m/s (hover to see current wind gust speed)